sensor_id;sensor_type;location;lat;lon;timestamp;pressure;altitude;pressure_sealevel;temperature;humidity
8298;BME280;4187;42.778;23.242;2023-02-14T00:02:05;96699.50;;;0.10;100.00
8298;BME280;4187;42.778;23.242;2023-02-14T00:04:33;96717.16;;;0.27;100.00
8298;BME280;4187;42.778;23.242;2023-02-14T00:07:02;96722.38;;;0.25;100.00
8298;BME280;4187;42.778;23.242;2023-02-14T00:09:30;96715.69;;;0.18;100.00
8298;BME280;4187;42.778;23.242;2023-02-14T00:11:57;96691.22;;;-0.03;100.00
8298;BME280;4187;42.778;23.242;2023-02-14T00:14:23;96716.81;;;0.10;100.00
8298;BME280;4187;42.778;23.242;2023-02-14T00:17:09;96720.97;;;0.15;100.00
8298;BME280;4187;42.778;23.242;2023-02-14T00:19:36;96724.13;;;0.25;100.00
8298;BME280;4187;42.778;23.242;2023-02-14T00:22:03;96721.44;;;0.28;100.00
8298;BME280;4187;42.778;23.242;2023-02-14T00:24:31;96681.53;;;0.04;100.00
8298;BME280;4187;42.778;23.242;2023-02-14T00:26:58;96720.56;;;0.29;100.00
8298;BME280;4187;42.778;23.242;2023-02-14T00:29:27;96722.44;;;0.24;100.00
8298;BME280;4187;42.778;23.242;2023-02-14T00:31:55;96713.97;;;0.17;100.00
8298;BME280;4187;42.778;23.242;2023-02-14T00:34:23;96723.47;;;0.18;100.00
8298;BME280;4187;42.778;23.242;2023-02-14T00:36:50;96715.72;;;0.17;100.00
8298;BME280;4187;42.778;23.242;2023-02-14T00:39:18;96719.94;;;0.21;100.00
8298;BME280;4187;42.778;23.242;2023-02-14T00:41:45;96716.16;;;0.31;100.00
8298;BME280;4187;42.778;23.242;2023-02-14T00:44:12;96721.09;;;0.38;100.00
8298;BME280;4187;42.778;23.242;2023-02-14T00:46:39;96713.97;;;0.45;100.00
8298;BME280;4187;42.778;23.242;2023-02-14T00:49:06;96669.59;;;0.25;100.00
8298;BME280;4187;42.778;23.242;2023-02-14T00:51:34;96707.56;;;0.55;100.00
8298;BME280;4187;42.778;23.242;2023-02-14T00:54:01;96708.13;;;0.65;100.00
8298;BME280;4187;42.778;23.242;2023-02-14T00:56:28;96707.09;;;0.70;100.00
8298;BME280;4187;42.778;23.242;2023-02-14T00:58:55;96698.38;;;0.71;100.00
8298;BME280;4187;42.778;23.242;2023-02-14T01:01:21;96692.22;;;0.74;100.00
8298;BME280;4187;42.778;23.242;2023-02-14T01:03:48;96686.75;;;0.81;100.00
8298;BME280;4187;42.778;23.242;2023-02-14T01:06:15;96684.13;;;0.83;100.00
8298;BME280;4187;42.778;23.242;2023-02-14T01:08:44;96681.03;;;0.72;100.00
8298;BME280;4187;42.778;23.242;2023-02-14T01:11:12;96680.09;;;0.74;100.00
8298;BME280;4187;42.778;23.242;2023-02-14T01:13:39;96677.97;;;0.85;100.00
8298;BME280;4187;42.778;23.242;2023-02-14T01:16:08;96672.22;;;1.00;100.00
8298;BME280;4187;42.778;23.242;2023-02-14T01:18:36;96675.31;;;1.11;100.00
8298;BME280;4187;42.778;23.242;2023-02-14T01:21:18;96679.50;;;1.15;100.00
8298;BME280;4187;42.778;23.242;2023-02-14T01:23:48;96669.13;;;1.15;100.00
8298;BME280;4187;42.778;23.242;2023-02-14T01:26:16;96660.25;;;1.21;100.00
8298;BME280;4187;42.778;23.242;2023-02-14T01:28:43;96665.94;;;1.31;100.00
8298;BME280;4187;42.778;23.242;2023-02-14T01:31:12;96666.47;;;1.40;100.00
8298;BME280;4187;42.778;23.242;2023-02-14T01:33:41;96676.72;;;1.45;100.00
8298;BME280;4187;42.778;23.242;2023-02-14T01:36:14;96657.44;;;1.50;100.00
8298;BME280;4187;42.778;23.242;2023-02-14T01:38:41;96634.34;;;1.41;100.00
8298;BME280;4187;42.778;23.242;2023-02-14T01:41:10;96655.50;;;1.55;100.00
8298;BME280;4187;42.778;23.242;2023-02-14T01:43:51;96646.13;;;1.51;100.00
8298;BME280;4187;42.778;23.242;2023-02-14T01:46:18;96648.25;;;1.63;100.00
8298;BME280;4187;42.778;23.242;2023-02-14T01:48:46;96628.41;;;1.61;100.00
8298;BME280;4187;42.778;23.242;2023-02-14T01:51:14;96635.19;;;1.65;100.00
8298;BME280;4187;42.778;23.242;2023-02-14T01:53:43;96630.78;;;1.67;100.00
8298;BME280;4187;42.778;23.242;2023-02-14T01:56:13;96624.06;;;1.61;100.00
8298;BME280;4187;42.778;23.242;2023-02-14T01:58:43;96607.66;;;1.59;100.00
8298;BME280;4187;42.778;23.242;2023-02-14T02:01:13;96643.38;;;1.77;100.00
8298;BME280;4187;42.778;23.242;2023-02-14T02:03:44;96642.41;;;1.80;100.00
8298;BME280;4187;42.778;23.242;2023-02-14T02:06:16;96644.72;;;1.88;100.00
8298;BME280;4187;42.778;23.242;2023-02-14T02:08:49;96630.59;;;1.93;100.00
8298;BME280;4187;42.778;23.242;2023-02-14T02:11:20;96642.13;;;2.09;100.00
8298;BME280;4187;42.778;23.242;2023-02-14T02:13:47;96635.19;;;2.08;100.00
8298;BME280;4187;42.778;23.242;2023-02-14T02:16:27;96631.78;;;2.08;100.00
8298;BME280;4187;42.778;23.242;2023-02-14T02:19:13;96628.34;;;2.06;100.00
8298;BME280;4187;42.778;23.242;2023-02-14T02:22:10;96597.75;;;1.91;100.00
8298;BME280;4187;42.778;23.242;2023-02-14T02:24:47;96626.63;;;2.06;100.00
8298;BME280;4187;42.778;23.242;2023-02-14T02:27:26;96618.91;;;2.03;100.00
8298;BME280;4187;42.778;23.242;2023-02-14T02:30:34;96613.81;;;2.00;100.00
8298;BME280;4187;42.778;23.242;2023-02-14T02:36:38;96573.53;;;2.10;100.00
8298;BME280;4187;42.778;23.242;2023-02-14T02:39:24;96598.25;;;2.20;100.00
8298;BME280;4187;42.778;23.242;2023-02-14T02:42:03;96602.56;;;2.21;100.00
8298;BME280;4187;42.778;23.242;2023-02-14T02:44:39;96614.22;;;2.13;100.00
8298;BME280;4187;42.778;23.242;2023-02-14T02:47:15;96594.94;;;1.95;100.00
8298;BME280;4187;42.778;23.242;2023-02-14T02:49:51;96590.47;;;1.77;100.00
8298;BME280;4187;42.778;23.242;2023-02-14T02:52:43;96604.81;;;1.87;100.00
8298;BME280;4187;42.778;23.242;2023-02-14T02:55:37;96621.78;;;1.75;100.00
8298;BME280;4187;42.778;23.242;2023-02-14T02:58:27;96606.94;;;1.77;100.00
8298;BME280;4187;42.778;23.242;2023-02-14T03:00:56;96593.63;;;1.63;100.00
8298;BME280;4187;42.778;23.242;2023-02-14T03:03:25;96570.84;;;1.47;100.00
8298;BME280;4187;42.778;23.242;2023-02-14T03:06:12;96609.44;;;1.80;100.00
8298;BME280;4187;42.778;23.242;2023-02-14T03:08:40;96610.13;;;1.84;100.00
8298;BME280;4187;42.778;23.242;2023-02-14T03:11:08;96612.50;;;1.90;100.00
8298;BME280;4187;42.778;23.242;2023-02-14T03:13:47;96611.50;;;1.94;100.00
8298;BME280;4187;42.778;23.242;2023-02-14T03:16:34;96603.69;;;1.94;100.00
8298;BME280;4187;42.778;23.242;2023-02-14T03:22:32;96574.84;;;1.77;100.00
8298;BME280;4187;42.778;23.242;2023-02-14T03:25:08;96589.06;;;1.90;100.00
8298;BME280;4187;42.778;23.242;2023-02-14T03:27:40;96593.16;;;1.97;100.00
8298;BME280;4187;42.778;23.242;2023-02-14T03:30:19;96575.91;;;1.95;100.00
8298;BME280;4187;42.778;23.242;2023-02-14T03:32:52;96572.31;;;1.97;100.00
8298;BME280;4187;42.778;23.242;2023-02-14T03:35:30;96586.34;;;1.93;100.00
8298;BME280;4187;42.778;23.242;2023-02-14T03:38:04;96592.72;;;1.86;100.00
8298;BME280;4187;42.778;23.242;2023-02-14T03:40:39;96593.28;;;1.94;100.00
8298;BME280;4187;42.778;23.242;2023-02-14T03:43:09;96587.22;;;1.94;100.00
8298;BME280;4187;42.778;23.242;2023-02-14T03:45:41;96538.22;;;1.60;100.00
8298;BME280;4187;42.778;23.242;2023-02-14T03:48:11;96582.47;;;1.81;100.00
8298;BME280;4187;42.778;23.242;2023-02-14T03:50:41;96581.03;;;1.74;100.00
8298;BME280;4187;42.778;23.242;2023-02-14T03:53:10;96575.09;;;1.71;100.00
8298;BME280;4187;42.778;23.242;2023-02-14T03:55:45;96567.66;;;1.62;100.00
8298;BME280;4187;42.778;23.242;2023-02-14T03:58:18;96568.00;;;1.53;100.00
8298;BME280;4187;42.778;23.242;2023-02-14T04:00:49;96474.13;;;0.92;100.00
8298;BME280;4187;42.778;23.242;2023-02-14T04:03:19;96564.00;;;1.44;100.00
8298;BME280;4187;42.778;23.242;2023-02-14T04:05:46;96546.22;;;1.34;100.00
8298;BME280;4187;42.778;23.242;2023-02-14T04:08:20;96560.50;;;1.45;100.00
8298;BME280;4187;42.778;23.242;2023-02-14T04:10:48;96559.00;;;1.40;100.00
8298;BME280;4187;42.778;23.242;2023-02-14T04:13:16;96560.97;;;1.33;100.00
8298;BME280;4187;42.778;23.242;2023-02-14T04:15:43;96562.66;;;1.34;100.00
8298;BME280;4187;42.778;23.242;2023-02-14T04:18:10;96556.56;;;1.35;100.00
8298;BME280;4187;42.778;23.242;2023-02-14T04:20:54;96544.69;;;1.28;100.00
8298;BME280;4187;42.778;23.242;2023-02-14T04:23:21;96527.25;;;1.08;100.00
8298;BME280;4187;42.778;23.242;2023-02-14T04:25:49;96549.97;;;1.27;100.00
8298;BME280;4187;42.778;23.242;2023-02-14T04:28:16;96546.63;;;1.23;100.00
8298;BME280;4187;42.778;23.242;2023-02-14T04:30:43;96547.78;;;1.16;100.00
8298;BME280;4187;42.778;23.242;2023-02-14T04:33:09;96550.00;;;1.25;100.00
8298;BME280;4187;42.778;23.242;2023-02-14T04:35:36;96538.91;;;1.22;100.00
8298;BME280;4187;42.778;23.242;2023-02-14T04:38:03;96534.63;;;1.19;100.00
8298;BME280;4187;42.778;23.242;2023-02-14T04:40:30;96508.25;;;1.06;100.00
8298;BME280;4187;42.778;23.242;2023-02-14T04:42:59;96537.06;;;1.24;100.00
8298;BME280;4187;42.778;23.242;2023-02-14T04:45:26;96535.88;;;1.32;100.00
8298;BME280;4187;42.778;23.242;2023-02-14T04:47:52;96529.09;;;1.28;100.00
8298;BME280;4187;42.778;23.242;2023-02-14T04:50:19;96520.69;;;1.22;100.00
8298;BME280;4187;42.778;23.242;2023-02-14T04:52:48;96508.81;;;1.14;100.00
8298;BME280;4187;42.778;23.242;2023-02-14T04:55:15;96517.53;;;1.13;100.00
8298;BME280;4187;42.778;23.242;2023-02-14T04:57:41;96521.22;;;1.08;100.00
8298;BME280;4187;42.778;23.242;2023-02-14T05:00:11;96522.88;;;1.09;100.00
8298;BME280;4187;42.778;23.242;2023-02-14T05:02:38;96530.66;;;1.10;100.00
8298;BME280;4187;42.778;23.242;2023-02-14T05:05:05;96512.59;;;1.06;100.00
8298;BME280;4187;42.778;23.242;2023-02-14T05:07:33;96506.69;;;1.02;100.00
8298;BME280;4187;42.778;23.242;2023-02-14T05:10:00;96520.06;;;1.15;100.00
8298;BME280;4187;42.778;23.242;2023-02-14T05:12:26;96517.41;;;1.16;100.00
8298;BME280;4187;42.778;23.242;2023-02-14T05:14:53;96514.78;;;1.16;100.00
8298;BME280;4187;42.778;23.242;2023-02-14T05:17:22;96516.63;;;1.14;100.00
8298;BME280;4187;42.778;23.242;2023-02-14T05:19:48;96517.34;;;1.18;100.00
8298;BME280;4187;42.778;23.242;2023-02-14T05:22:15;96512.91;;;1.22;100.00
8298;BME280;4187;42.778;23.242;2023-02-14T05:24:42;96507.69;;;1.22;100.00
8298;BME280;4187;42.778;23.242;2023-02-14T05:27:09;96498.78;;;1.05;100.00
8298;BME280;4187;42.778;23.242;2023-02-14T05:29:36;96520.50;;;1.26;100.00
8298;BME280;4187;42.778;23.242;2023-02-14T05:32:03;96517.91;;;1.26;100.00
8298;BME280;4187;42.778;23.242;2023-02-14T05:34:31;96523.22;;;1.23;100.00
8298;BME280;4187;42.778;23.242;2023-02-14T05:36:58;96526.59;;;1.25;100.00
8298;BME280;4187;42.778;23.242;2023-02-14T05:39:26;96524.94;;;1.24;100.00
8298;BME280;4187;42.778;23.242;2023-02-14T05:41:53;96515.50;;;1.22;100.00
8298;BME280;4187;42.778;23.242;2023-02-14T05:44:20;96516.44;;;1.19;100.00
8298;BME280;4187;42.778;23.242;2023-02-14T05:46:47;96524.38;;;1.16;100.00
8298;BME280;4187;42.778;23.242;2023-02-14T05:49:14;96513.91;;;1.17;100.00
8298;BME280;4187;42.778;23.242;2023-02-14T05:51:42;96491.88;;;1.04;100.00
8298;BME280;4187;42.778;23.242;2023-02-14T05:54:09;96507.72;;;1.20;100.00
8298;BME280;4187;42.778;23.242;2023-02-14T05:56:36;96492.72;;;1.05;100.00
8298;BME280;4187;42.778;23.242;2023-02-14T05:59:03;96509.38;;;1.23;100.00
8298;BME280;4187;42.778;23.242;2023-02-14T06:01:30;96513.72;;;1.22;100.00
8298;BME280;4187;42.778;23.242;2023-02-14T06:03:57;96517.69;;;1.32;100.00
8298;BME280;4187;42.778;23.242;2023-02-14T06:06:24;96509.75;;;1.35;100.00
8298;BME280;4187;42.778;23.242;2023-02-14T06:08:52;96484.56;;;1.14;100.00
8298;BME280;4187;42.778;23.242;2023-02-14T06:11:18;96513.81;;;1.42;100.00
8298;BME280;4187;42.778;23.242;2023-02-14T06:13:45;96527.00;;;1.59;100.00
8298;BME280;4187;42.778;23.242;2023-02-14T06:16:12;96494.84;;;1.60;100.00
8298;BME280;4187;42.778;23.242;2023-02-14T06:18:39;96516.31;;;1.87;100.00
8298;BME280;4187;42.778;23.242;2023-02-14T06:21:06;96517.81;;;1.93;100.00
8298;BME280;4187;42.778;23.242;2023-02-14T06:23:32;96524.03;;;2.10;100.00
8298;BME280;4187;42.778;23.242;2023-02-14T06:26:00;96530.31;;;2.26;100.00
8298;BME280;4187;42.778;23.242;2023-02-14T06:28:28;96458.44;;;2.02;100.00
8298;BME280;4187;42.778;23.242;2023-02-14T06:30:54;96530.50;;;2.62;100.00
8298;BME280;4187;42.778;23.242;2023-02-14T06:33:21;96527.41;;;2.73;100.00
8298;BME280;4187;42.778;23.242;2023-02-14T06:35:48;96524.97;;;2.88;100.00
8298;BME280;4187;42.778;23.242;2023-02-14T06:38:15;96522.66;;;3.01;100.00
8298;BME280;4187;42.778;23.242;2023-02-14T06:40:42;96524.41;;;3.00;100.00
8298;BME280;4187;42.778;23.242;2023-02-14T06:43:10;96532.31;;;2.99;100.00
8298;BME280;4187;42.778;23.242;2023-02-14T06:45:39;96524.00;;;3.10;100.00
8298;BME280;4187;42.778;23.242;2023-02-14T06:48:08;96523.50;;;3.20;100.00
8298;BME280;4187;42.778;23.242;2023-02-14T06:50:34;96520.19;;;3.35;100.00
8298;BME280;4187;42.778;23.242;2023-02-14T06:53:01;96518.06;;;3.43;100.00
8298;BME280;4187;42.778;23.242;2023-02-14T06:55:28;96503.34;;;3.42;100.00
8298;BME280;4187;42.778;23.242;2023-02-14T06:57:55;96510.91;;;3.48;100.00
8298;BME280;4187;42.778;23.242;2023-02-14T07:00:23;96513.56;;;3.47;100.00
8298;BME280;4187;42.778;23.242;2023-02-14T07:02:50;96507.22;;;3.52;100.00
8298;BME280;4187;42.778;23.242;2023-02-14T07:05:17;96498.09;;;3.61;100.00
8298;BME280;4187;42.778;23.242;2023-02-14T07:07:44;96499.28;;;3.73;100.00
8298;BME280;4187;42.778;23.242;2023-02-14T07:10:11;96501.00;;;3.91;100.00
8298;BME280;4187;42.778;23.242;2023-02-14T07:12:38;96489.63;;;4.09;100.00
8298;BME280;4187;42.778;23.242;2023-02-14T07:15:05;96502.00;;;4.22;100.00
8298;BME280;4187;42.778;23.242;2023-02-14T07:17:33;96500.63;;;4.33;100.00
8298;BME280;4187;42.778;23.242;2023-02-14T07:20:00;96495.31;;;4.34;100.00
8298;BME280;4187;42.778;23.242;2023-02-14T07:22:27;96508.63;;;4.30;100.00
8298;BME280;4187;42.778;23.242;2023-02-14T07:24:54;96500.94;;;4.27;100.00
8298;BME280;4187;42.778;23.242;2023-02-14T07:27:20;96506.84;;;4.30;100.00
8298;BME280;4187;42.778;23.242;2023-02-14T07:29:47;96497.34;;;4.29;100.00
8298;BME280;4187;42.778;23.242;2023-02-14T07:32:14;96515.47;;;4.32;100.00
8298;BME280;4187;42.778;23.242;2023-02-14T07:34:43;96506.22;;;4.25;100.00
8298;BME280;4187;42.778;23.242;2023-02-14T07:37:09;96508.63;;;4.30;100.00
8298;BME280;4187;42.778;23.242;2023-02-14T07:39:36;96479.03;;;4.12;100.00
8298;BME280;4187;42.778;23.242;2023-02-14T07:42:03;96489.09;;;4.19;100.00
8298;BME280;4187;42.778;23.242;2023-02-14T07:44:30;96514.84;;;4.27;100.00
8298;BME280;4187;42.778;23.242;2023-02-14T07:46:57;96505.22;;;4.28;100.00
8298;BME280;4187;42.778;23.242;2023-02-14T07:49:24;96511.84;;;4.17;100.00
8298;BME280;4187;42.778;23.242;2023-02-14T07:51:52;96515.84;;;4.07;100.00
8298;BME280;4187;42.778;23.242;2023-02-14T07:54:19;96490.56;;;3.91;100.00
8298;BME280;4187;42.778;23.242;2023-02-14T07:56:46;96520.97;;;4.09;100.00
8298;BME280;4187;42.778;23.242;2023-02-14T07:59:13;96518.38;;;4.09;100.00
8298;BME280;4187;42.778;23.242;2023-02-14T08:01:40;96525.44;;;4.07;100.00
8298;BME280;4187;42.778;23.242;2023-02-14T08:04:07;96526.28;;;4.07;100.00
8298;BME280;4187;42.778;23.242;2023-02-14T08:06:34;96525.06;;;3.97;100.00
8298;BME280;4187;42.778;23.242;2023-02-14T08:09:02;96506.78;;;3.97;100.00
8298;BME280;4187;42.778;23.242;2023-02-14T08:11:29;96532.38;;;4.08;100.00
8298;BME280;4187;42.778;23.242;2023-02-14T08:14:13;96529.28;;;4.17;100.00
8298;BME280;4187;42.778;23.242;2023-02-14T08:16:40;96525.47;;;4.24;100.00
8298;BME280;4187;42.778;23.242;2023-02-14T08:19:07;96533.91;;;4.29;100.00
8298;BME280;4187;42.778;23.242;2023-02-14T08:21:34;96546.19;;;4.44;100.00
8298;BME280;4187;42.778;23.242;2023-02-14T08:24:02;96523.28;;;4.49;100.00
8298;BME280;4187;42.778;23.242;2023-02-14T08:26:29;96531.56;;;4.74;100.00
8298;BME280;4187;42.778;23.242;2023-02-14T08:28:56;96534.84;;;4.95;100.00
8298;BME280;4187;42.778;23.242;2023-02-14T08:31:24;96536.84;;;5.23;100.00
8298;BME280;4187;42.778;23.242;2023-02-14T08:33:52;96545.00;;;5.17;100.00
8298;BME280;4187;42.778;23.242;2023-02-14T08:36:18;96542.06;;;5.23;100.00
8298;BME280;4187;42.778;23.242;2023-02-14T08:38:45;96532.63;;;5.20;100.00
8298;BME280;4187;42.778;23.242;2023-02-14T08:41:15;96537.72;;;5.06;100.00
8298;BME280;4187;42.778;23.242;2023-02-14T08:43:42;96527.84;;;4.96;100.00
8298;BME280;4187;42.778;23.242;2023-02-14T08:46:09;96544.84;;;5.20;100.00
8298;BME280;4187;42.778;23.242;2023-02-14T08:48:36;96537.28;;;5.31;100.00
8298;BME280;4187;42.778;23.242;2023-02-14T08:51:04;96537.81;;;5.53;100.00
8298;BME280;4187;42.778;23.242;2023-02-14T08:53:31;96537.97;;;5.81;100.00
8298;BME280;4187;42.778;23.242;2023-02-14T08:56:01;96537.16;;;5.96;100.00
8298;BME280;4187;42.778;23.242;2023-02-14T08:58:29;96554.44;;;6.15;100.00
8298;BME280;4187;42.778;23.242;2023-02-14T09:00:56;96541.00;;;6.50;100.00
8298;BME280;4187;42.778;23.242;2023-02-14T09:03:23;96543.75;;;6.63;100.00
8298;BME280;4187;42.778;23.242;2023-02-14T09:05:50;96546.41;;;6.77;100.00
8298;BME280;4187;42.778;23.242;2023-02-14T09:08:17;96551.19;;;6.85;100.00
8298;BME280;4187;42.778;23.242;2023-02-14T09:10:44;96555.31;;;7.03;100.00
8298;BME280;4187;42.778;23.242;2023-02-14T09:13:11;96536.28;;;6.85;100.00
8298;BME280;4187;42.778;23.242;2023-02-14T09:15:41;96528.13;;;7.60;100.00
8298;BME280;4187;42.778;23.242;2023-02-14T09:18:08;96553.47;;;7.33;98.02
8298;BME280;4187;42.778;23.242;2023-02-14T09:20:35;96550.34;;;6.84;99.30
8298;BME280;4187;42.778;23.242;2023-02-14T09:23:02;96546.13;;;6.38;100.00
8298;BME280;4187;42.778;23.242;2023-02-14T09:25:29;96537.06;;;6.14;100.00
8298;BME280;4187;42.778;23.242;2023-02-14T09:27:56;96529.34;;;5.79;100.00
8298;BME280;4187;42.778;23.242;2023-02-14T09:30:23;96536.13;;;5.83;100.00
8298;BME280;4187;42.778;23.242;2023-02-14T09:32:52;96529.34;;;5.79;100.00
8298;BME280;4187;42.778;23.242;2023-02-14T09:35:19;96529.03;;;5.70;100.00
8298;BME280;4187;42.778;23.242;2023-02-14T09:38:03;96534.84;;;5.75;100.00
8298;BME280;4187;42.778;23.242;2023-02-14T09:40:31;96541.19;;;5.71;100.00
8298;BME280;4187;42.778;23.242;2023-02-14T09:43:08;96511.53;;;5.55;100.00
8298;BME280;4187;42.778;23.242;2023-02-14T09:45:38;96526.91;;;5.76;100.00
8298;BME280;4187;42.778;23.242;2023-02-14T09:48:13;96523.78;;;5.70;100.00
8298;BME280;4187;42.778;23.242;2023-02-14T09:50:46;96526.47;;;5.53;100.00
8298;BME280;4187;42.778;23.242;2023-02-14T09:53:21;96524.72;;;5.37;100.00
8298;BME280;4187;42.778;23.242;2023-02-14T09:55:54;96517.03;;;5.34;100.00
8298;BME280;4187;42.778;23.242;2023-02-14T09:58:28;96500.13;;;5.24;100.00
8298;BME280;4187;42.778;23.242;2023-02-14T10:01:04;96510.66;;;5.23;100.00
8298;BME280;4187;42.778;23.242;2023-02-14T10:06:47;96523.09;;;5.35;100.00
8298;BME280;4187;42.778;23.242;2023-02-14T10:09:30;96509.00;;;5.37;100.00
8298;BME280;4187;42.778;23.242;2023-02-14T10:12:04;96510.44;;;5.43;100.00
8298;BME280;4187;42.778;23.242;2023-02-14T10:14:34;96508.00;;;5.40;100.00
8298;BME280;4187;42.778;23.242;2023-02-14T10:17:08;96511.09;;;5.31;100.00
8298;BME280;4187;42.778;23.242;2023-02-14T10:19:40;96518.34;;;5.26;100.00
8298;BME280;4187;42.778;23.242;2023-02-14T10:22:13;96510.25;;;5.30;100.00
8298;BME280;4187;42.778;23.242;2023-02-14T10:24:42;96516.59;;;5.42;100.00
8298;BME280;4187;42.778;23.242;2023-02-14T10:27:17;96508.91;;;5.23;100.00
8298;BME280;4187;42.778;23.242;2023-02-14T10:29:50;96509.91;;;5.21;100.00
8298;BME280;4187;42.778;23.242;2023-02-14T10:32:22;96501.66;;;5.28;100.00
8298;BME280;4187;42.778;23.242;2023-02-14T10:34:55;96503.69;;;5.39;100.00
8298;BME280;4187;42.778;23.242;2023-02-14T10:37:34;96518.47;;;5.40;100.00
8298;BME280;4187;42.778;23.242;2023-02-14T10:40:32;96513.53;;;5.18;100.00
8298;BME280;4187;42.778;23.242;2023-02-14T10:43:08;96492.94;;;5.12;100.00
8298;BME280;4187;42.778;23.242;2023-02-14T10:45:46;96486.50;;;5.02;100.00
8298;BME280;4187;42.778;23.242;2023-02-14T10:48:20;96487.09;;;5.07;100.00
8298;BME280;4187;42.778;23.242;2023-02-14T10:50:59;96497.53;;;4.92;100.00
8298;BME280;4187;42.778;23.242;2023-02-14T10:53:36;96494.84;;;4.93;100.00
8298;BME280;4187;42.778;23.242;2023-02-14T10:56:11;96493.06;;;4.94;100.00
8298;BME280;4187;42.778;23.242;2023-02-14T10:58:44;96492.91;;;4.97;100.00
8298;BME280;4187;42.778;23.242;2023-02-14T11:01:13;96495.84;;;4.91;100.00
8298;BME280;4187;42.778;23.242;2023-02-14T11:03:50;96483.03;;;4.86;100.00
8298;BME280;4187;42.778;23.242;2023-02-14T11:06:19;96484.84;;;4.84;100.00
8298;BME280;4187;42.778;23.242;2023-02-14T11:08:46;96486.72;;;4.82;100.00
8298;BME280;4187;42.778;23.242;2023-02-14T11:11:19;96470.88;;;4.68;100.00
8298;BME280;4187;42.778;23.242;2023-02-14T11:13:47;96487.59;;;4.65;100.00
8298;BME280;4187;42.778;23.242;2023-02-14T11:16:26;96496.44;;;4.63;100.00
8298;BME280;4187;42.778;23.242;2023-02-14T11:19:08;96468.38;;;4.49;100.00
8298;BME280;4187;42.778;23.242;2023-02-14T11:21:42;96473.41;;;4.54;100.00
8298;BME280;4187;42.778;23.242;2023-02-14T11:24:16;96483.84;;;4.54;100.00
8298;BME280;4187;42.778;23.242;2023-02-14T11:26:45;96473.47;;;4.52;100.00
8298;BME280;4187;42.778;23.242;2023-02-14T11:29:15;96470.63;;;4.57;100.00
8298;BME280;4187;42.778;23.242;2023-02-14T11:31:46;96469.63;;;4.59;100.00
8298;BME280;4187;42.778;23.242;2023-02-14T11:34:32;96471.25;;;4.62;100.00
8298;BME280;4187;42.778;23.242;2023-02-14T11:37:03;96451.47;;;4.56;100.00
8298;BME280;4187;42.778;23.242;2023-02-14T11:39:42;96461.66;;;4.78;100.00
8298;BME280;4187;42.778;23.242;2023-02-14T11:42:11;96470.25;;;4.80;100.00
8298;BME280;4187;42.778;23.242;2023-02-14T11:44:53;96461.66;;;4.78;100.00
8298;BME280;4187;42.778;23.242;2023-02-14T11:47:26;96471.13;;;4.80;100.00
8298;BME280;4187;42.778;23.242;2023-02-14T11:49:55;96453.03;;;4.76;100.00
8298;BME280;4187;42.778;23.242;2023-02-14T11:52:24;96447.47;;;4.82;100.00
8298;BME280;4187;42.778;23.242;2023-02-14T11:54:54;96452.56;;;4.85;100.00
8298;BME280;4187;42.778;23.242;2023-02-14T11:57:24;96453.09;;;4.92;100.00
8298;BME280;4187;42.778;23.242;2023-02-14T11:59:54;96449.94;;;5.01;100.00
8298;BME280;4187;42.778;23.242;2023-02-14T12:02:27;96445.50;;;5.03;100.00
8298;BME280;4187;42.778;23.242;2023-02-14T12:04:57;96432.91;;;5.09;100.00
8298;BME280;4187;42.778;23.242;2023-02-14T12:07:28;96433.59;;;5.13;100.00
8298;BME280;4187;42.778;23.242;2023-02-14T12:10:15;96430.81;;;5.16;100.00
8298;BME280;4187;42.778;23.242;2023-02-14T12:12:49;96415.34;;;5.11;100.00
8298;BME280;4187;42.778;23.242;2023-02-14T12:15:34;96430.66;;;5.19;100.00
8298;BME280;4187;42.778;23.242;2023-02-14T12:18:28;96428.78;;;5.21;100.00
8298;BME280;4187;42.778;23.242;2023-02-14T12:21:05;96426.97;;;5.68;100.00
8298;BME280;4187;42.778;23.242;2023-02-14T12:23:43;96420.91;;;6.98;100.00
8298;BME280;4187;42.778;23.242;2023-02-14T12:26:18;96411.19;;;7.94;96.63
8298;BME280;4187;42.778;23.242;2023-02-14T12:28:55;96396.56;;;7.63;100.00
8298;BME280;4187;42.778;23.242;2023-02-14T12:31:23;96416.84;;;8.65;100.00
8298;BME280;4187;42.778;23.242;2023-02-14T12:33:50;96422.44;;;8.86;91.96
8298;BME280;4187;42.778;23.242;2023-02-14T12:36:40;96421.59;;;8.85;82.78
8298;BME280;4187;42.778;23.242;2023-02-14T12:39:15;96410.09;;;8.99;87.64
8298;BME280;4187;42.778;23.242;2023-02-14T12:41:49;96424.56;;;9.42;86.17
8298;BME280;4187;42.778;23.242;2023-02-14T12:44:25;96398.19;;;9.19;85.37
8298;BME280;4187;42.778;23.242;2023-02-14T12:47:15;96414.25;;;9.87;82.91
8298;BME280;4187;42.778;23.242;2023-02-14T12:50:12;96414.53;;;10.18;80.47
8298;BME280;4187;42.778;23.242;2023-02-14T12:52:54;96411.44;;;10.01;79.79
8298;BME280;4187;42.778;23.242;2023-02-14T12:55:36;96419.34;;;10.01;77.19
8298;BME280;4187;42.778;23.242;2023-02-14T12:58:14;96404.59;;;9.75;79.16
8298;BME280;4187;42.778;23.242;2023-02-14T13:00:48;96412.06;;;9.81;80.09
8298;BME280;4187;42.778;23.242;2023-02-14T13:03:48;96410.66;;;9.64;80.90
8298;BME280;4187;42.778;23.242;2023-02-14T13:06:21;96401.59;;;10.15;78.41
8298;BME280;4187;42.778;23.242;2023-02-14T13:09:20;96406.94;;;9.90;79.44
8298;BME280;4187;42.778;23.242;2023-02-14T13:12:00;96413.47;;;9.74;77.41
8298;BME280;4187;42.778;23.242;2023-02-14T13:14:42;96410.22;;;9.70;79.20
8298;BME280;4187;42.778;23.242;2023-02-14T13:17:18;96394.72;;;8.93;79.70
8298;BME280;4187;42.778;23.242;2023-02-14T13:19:52;96385.91;;;8.81;84.95
8298;BME280;4187;42.778;23.242;2023-02-14T13:22:24;96394.34;;;8.74;80.92
8298;BME280;4187;42.778;23.242;2023-02-14T13:24:56;96402.66;;;7.91;84.42
8298;BME280;4187;42.778;23.242;2023-02-14T13:27:27;96384.78;;;7.30;88.39
8298;BME280;4187;42.778;23.242;2023-02-14T13:29:58;96404.38;;;6.69;91.89
8298;BME280;4187;42.778;23.242;2023-02-14T13:32:30;96390.28;;;6.14;95.36
8298;BME280;4187;42.778;23.242;2023-02-14T13:34:58;96389.78;;;6.07;97.58
8298;BME280;4187;42.778;23.242;2023-02-14T13:37:27;96379.31;;;6.07;97.69
8298;BME280;4187;42.778;23.242;2023-02-14T13:39:57;96383.59;;;5.94;99.31
8298;BME280;4187;42.778;23.242;2023-02-14T13:42:54;96363.00;;;5.72;99.65
8298;BME280;4187;42.778;23.242;2023-02-14T13:48:25;96290.78;;;5.09;100.00